createdAt,value
2022-09-12T00:00:24.256Z,1.85
2022-09-12T00:02:53.929Z,1.83
2022-09-12T00:05:23.725Z,2.00
2022-09-12T00:07:51.810Z,2.15
2022-09-12T00:10:19.661Z,2.20
2022-09-12T00:12:47.382Z,2.30
2022-09-12T00:15:15.297Z,2.28
2022-09-12T00:17:42.953Z,2.15
2022-09-12T00:20:12.134Z,2.17
2022-09-12T00:22:41.448Z,2.65
2022-09-12T00:25:09.197Z,2.50
2022-09-12T00:27:36.955Z,2.70
2022-09-12T00:30:05.192Z,2.00
2022-09-12T00:32:32.890Z,2.38
2022-09-12T00:35:02.802Z,1.90
2022-09-12T00:37:30.512Z,2.22
2022-09-12T00:39:59.573Z,2.42
2022-09-12T00:42:27.393Z,2.70
2022-09-12T00:44:55.081Z,2.38
2022-09-12T00:47:26.308Z,2.50
2022-09-12T00:49:59.481Z,2.20
2022-09-12T00:52:30.671Z,2.33
2022-09-12T00:55:04.315Z,2.65
2022-09-12T00:57:36.424Z,2.40
2022-09-12T01:00:11.506Z,2.78
2022-09-12T01:02:39.456Z,2.47
2022-09-12T01:05:08.450Z,2.72
2022-09-12T01:07:39.998Z,2.72
2022-09-12T01:10:10.956Z,3.00
2022-09-12T01:12:41.427Z,2.88
2022-09-12T01:15:10.074Z,3.05
2022-09-12T01:17:52.250Z,3.10
2022-09-12T01:20:42.920Z,3.25
2022-09-12T01:23:35.506Z,3.55
2022-09-12T01:26:29.250Z,2.88
2022-09-12T01:29:12.893Z,3.08
2022-09-12T01:31:50.375Z,3.10
2022-09-12T01:34:28.100Z,3.35
2022-09-12T01:37:05.757Z,2.65
2022-09-12T01:39:41.295Z,3.08
2022-09-12T01:42:19.459Z,3.35
2022-09-12T01:44:54.884Z,3.08
2022-09-12T01:47:30.615Z,2.78
2022-09-12T01:50:02.605Z,3.10
2022-09-12T01:52:36.293Z,3.95
2022-09-12T01:55:12.766Z,2.90
2022-09-12T01:57:45.479Z,2.97
2022-09-12T02:00:14.412Z,3.70
2022-09-12T02:02:50.584Z,3.40
2022-09-12T02:05:23.205Z,3.58
2022-09-12T02:07:54.766Z,4.00
2022-09-12T02:10:32.227Z,4.07
2022-09-12T02:13:08.732Z,3.50
2022-09-12T02:15:40.150Z,3.40
2022-09-12T02:18:14.089Z,4.10
2022-09-12T02:20:48.633Z,4.22
2022-09-12T02:23:23.653Z,3.85
2022-09-12T02:25:57.527Z,4.15
2022-09-12T02:28:31.020Z,4.25
2022-09-12T02:31:06.525Z,3.60
2022-09-12T02:33:44.461Z,3.70
2022-09-12T02:36:23.943Z,3.05
2022-09-12T02:38:52.140Z,3.03
2022-09-12T02:41:22.132Z,2.83
2022-09-12T02:43:51.397Z,3.40
2022-09-12T02:46:24.189Z,3.40
2022-09-12T02:48:54.345Z,3.45
2022-09-12T02:51:23.847Z,4.32
2022-09-12T02:53:52.459Z,3.83
2022-09-12T02:56:27.193Z,4.15
2022-09-12T02:58:57.211Z,4.00
2022-09-12T03:01:36.432Z,4.05
2022-09-12T03:04:24.338Z,3.90
2022-09-12T03:07:02.147Z,5.13
2022-09-12T03:09:38.789Z,5.13
2022-09-12T03:12:19.667Z,4.93
2022-09-12T03:15:13.623Z,4.90
2022-09-12T03:17:55.686Z,3.88
2022-09-12T03:20:37.102Z,4.85
2022-09-12T03:23:10.703Z,5.17
2022-09-12T03:25:44.543Z,4.93
2022-09-12T03:28:16.607Z,5.32
2022-09-12T03:30:46.646Z,5.30
2022-09-12T03:33:16.234Z,4.90
2022-09-12T03:35:45.787Z,5.72
2022-09-12T03:38:13.559Z,5.22
2022-09-12T03:40:41.389Z,5.47
2022-09-12T03:43:09.887Z,5.30
2022-09-12T03:45:38.842Z,5.68
2022-09-12T03:48:07.177Z,5.50
2022-09-12T03:50:35.132Z,4.90
2022-09-12T03:53:04.998Z,5.07
2022-09-12T03:55:32.676Z,4.72
2022-09-12T03:58:00.548Z,5.15
2022-09-12T04:00:28.299Z,4.97
2022-09-12T04:02:56.987Z,4.85
2022-09-12T04:05:25.255Z,5.60
2022-09-12T04:07:53.601Z,5.82
2022-09-12T04:10:22.680Z,5.75
2022-09-12T04:12:50.420Z,5.68
2022-09-12T04:15:18.237Z,5.80
2022-09-12T04:17:46.001Z,5.70
2022-09-12T04:20:13.643Z,5.05
2022-09-12T04:22:41.430Z,5.82
2022-09-12T04:25:10.387Z,5.43
2022-09-12T04:27:39.419Z,6.28
2022-09-12T04:30:08.896Z,6.22
2022-09-12T04:32:36.584Z,6.20
2022-09-12T04:35:05.249Z,6.10
2022-09-12T04:37:32.905Z,5.43
2022-09-12T04:40:00.716Z,5.78
2022-09-12T04:42:28.484Z,4.53
2022-09-12T04:44:57.714Z,5.20
2022-09-12T04:47:25.514Z,5.43
2022-09-12T04:49:53.953Z,6.07
2022-09-12T04:52:21.620Z,5.65
2022-09-12T04:54:49.368Z,5.55
2022-09-12T04:57:17.126Z,6.88
2022-09-12T04:59:44.966Z,6.38
2022-09-12T05:02:14.097Z,6.35
2022-09-12T05:04:41.861Z,6.15
2022-09-12T05:07:09.575Z,6.63
2022-09-12T05:09:37.343Z,6.38
2022-09-12T05:12:06.049Z,6.35
2022-09-12T05:14:34.892Z,6.60
2022-09-12T05:17:03.200Z,6.97
2022-09-12T05:19:32.991Z,6.20
2022-09-12T05:22:00.945Z,5.93
2022-09-12T05:24:28.942Z,5.60
2022-09-12T05:26:56.671Z,5.32
2022-09-12T05:29:25.127Z,5.00
2022-09-12T05:31:53.428Z,5.05
2022-09-12T05:34:21.494Z,4.93
2022-09-12T05:36:50.627Z,4.43
2022-09-12T05:39:18.568Z,3.80
2022-09-12T05:41:47.290Z,3.60
2022-09-12T05:44:15.629Z,3.55
2022-09-12T05:46:45.123Z,3.35
2022-09-12T05:49:14.772Z,3.80
2022-09-12T05:51:44.865Z,3.55
2022-09-12T05:54:16.100Z,4.00
2022-09-12T05:56:45.358Z,3.67
2022-09-12T05:59:15.148Z,3.35
2022-09-12T06:01:43.057Z,3.78
2022-09-12T06:04:11.135Z,3.38
2022-09-12T06:06:41.686Z,3.53
2022-09-12T06:09:09.656Z,2.85
2022-09-12T06:11:41.328Z,3.67
2022-09-12T06:14:10.071Z,3.25
2022-09-12T06:16:38.766Z,6.20
2022-09-12T06:19:08.796Z,5.47
2022-09-12T06:21:37.783Z,8.80
2022-09-12T06:24:05.909Z,4.07
2022-09-12T06:26:33.631Z,3.80
2022-09-12T06:29:03.143Z,3.80
2022-09-12T06:31:33.118Z,2.83
2022-09-12T06:34:02.542Z,2.50
2022-09-12T06:36:32.266Z,2.85
2022-09-12T06:39:01.889Z,2.70
2022-09-12T06:41:31.073Z,2.78
2022-09-12T06:43:59.312Z,2.88
2022-09-12T06:46:28.946Z,3.03
2022-09-12T06:48:57.408Z,2.63
2022-09-12T06:51:25.421Z,2.35
2022-09-12T06:53:56.115Z,2.65
2022-09-12T06:56:26.413Z,3.30
2022-09-12T06:58:56.347Z,2.75
2022-09-12T07:01:25.989Z,3.22
2022-09-12T07:03:56.705Z,3.28
2022-09-12T07:06:31.564Z,3.83
2022-09-12T07:09:00.095Z,3.20
2022-09-12T07:11:30.497Z,2.97
2022-09-12T07:14:00.497Z,2.55
2022-09-12T07:16:28.560Z,2.90
2022-09-12T07:18:59.417Z,2.63
2022-09-12T07:21:27.963Z,2.22
2022-09-12T07:23:57.777Z,2.22
2022-09-12T07:26:26.778Z,2.85
2022-09-12T07:29:07.884Z,2.33
2022-09-12T07:31:43.521Z,2.80
2022-09-12T07:34:12.914Z,2.60
2022-09-12T07:36:40.730Z,2.50
2022-09-12T07:39:08.624Z,2.20
2022-09-12T07:41:36.342Z,2.60
2022-09-12T07:44:06.647Z,2.63
2022-09-12T07:46:35.310Z,2.80
2022-09-12T07:49:03.965Z,2.63
2022-09-12T07:51:33.288Z,2.10
2022-09-12T07:54:01.130Z,2.13
2022-09-12T07:56:32.023Z,2.47
2022-09-12T07:59:02.407Z,2.20
2022-09-12T08:01:30.089Z,1.95
2022-09-12T08:03:59.111Z,1.80
2022-09-12T08:06:28.429Z,1.95
2022-09-12T08:08:59.112Z,2.08
2022-09-12T08:11:29.245Z,1.75
2022-09-12T08:13:58.152Z,1.98
2022-09-12T08:16:29.537Z,2.10
2022-09-12T08:18:57.426Z,1.92
2022-09-12T08:21:26.814Z,2.38
2022-09-12T08:23:56.456Z,2.17
2022-09-12T08:26:25.873Z,2.33
2022-09-12T08:28:54.780Z,2.38
2022-09-12T08:31:24.337Z,1.98
2022-09-12T08:33:52.622Z,1.83
2022-09-12T08:36:22.629Z,2.00
2022-09-12T08:38:53.675Z,2.25
2022-09-12T08:41:30.459Z,1.90
2022-09-12T08:44:20.027Z,1.95
2022-09-12T08:46:59.144Z,1.90
2022-09-12T08:49:31.034Z,2.00
2022-09-12T08:54:30.885Z,1.90
2022-09-12T08:57:06.881Z,1.80
2022-09-12T08:59:39.169Z,1.90
2022-09-12T09:02:29.781Z,1.45
2022-09-12T09:05:10.682Z,1.70
2022-09-12T09:08:00.293Z,1.88
2022-09-12T09:10:36.020Z,2.20
2022-09-12T09:13:38.260Z,2.15
2022-09-12T09:18:38.577Z,1.77
2022-09-12T09:21:14.559Z,2.00
2022-09-12T09:23:46.684Z,1.92
2022-09-12T09:26:18.203Z,1.95
2022-09-12T09:28:51.336Z,2.08
2022-09-12T09:31:21.380Z,2.33
2022-09-12T09:33:51.155Z,1.75
2022-09-12T09:36:22.385Z,2.00
2022-09-12T09:38:51.689Z,2.22
2022-09-12T09:41:31.744Z,2.08
2022-09-12T09:44:02.784Z,2.20
2022-09-12T09:46:30.737Z,2.45
2022-09-12T09:49:02.332Z,2.20
2022-09-12T09:51:46.467Z,2.38
2022-09-12T09:54:20.693Z,1.90
2022-09-12T09:56:48.530Z,2.08
2022-09-12T09:59:19.806Z,1.77
2022-09-12T10:01:50.902Z,2.38
2022-09-12T10:04:21.948Z,2.60
2022-09-12T10:06:52.813Z,2.30
2022-09-12T10:09:23.900Z,2.67
2022-09-12T10:11:53.738Z,2.25
2022-09-12T10:14:36.028Z,2.38
2022-09-12T10:17:22.383Z,2.50
2022-09-12T10:20:10.543Z,2.13
2022-09-12T10:22:39.543Z,2.72
2022-09-12T10:25:13.183Z,2.63
2022-09-12T10:27:42.962Z,2.72
2022-09-12T10:30:20.651Z,2.55
2022-09-12T10:32:50.815Z,2.53
2022-09-12T10:35:21.038Z,2.40
2022-09-12T10:37:55.801Z,2.85
2022-09-12T10:40:26.120Z,2.78
2022-09-12T10:42:55.815Z,2.78
2022-09-12T10:45:30.463Z,2.17
2022-09-12T10:48:04.145Z,2.50
2022-09-12T10:50:40.394Z,2.50
2022-09-12T10:53:19.451Z,2.42
2022-09-12T10:56:02.865Z,2.90
2022-09-12T10:58:43.975Z,2.53
2022-09-12T11:01:25.552Z,2.45
2022-09-12T11:04:14.511Z,2.10
2022-09-12T11:06:53.701Z,2.35
2022-09-12T11:09:29.128Z,2.53
2022-09-12T11:12:08.235Z,2.50
2022-09-12T11:14:49.111Z,2.83
2022-09-12T11:17:26.530Z,2.65
2022-09-12T11:20:21.268Z,2.70
2022-09-12T11:23:15.140Z,2.22
2022-09-12T11:25:50.997Z,1.88
2022-09-12T11:28:35.841Z,2.13
2022-09-12T11:31:35.377Z,2.65
2022-09-12T11:34:10.061Z,2.30
2022-09-12T11:36:44.194Z,2.22
2022-09-12T11:39:15.846Z,1.90
2022-09-12T11:41:47.973Z,2.10
2022-09-12T11:44:23.271Z,1.80
2022-09-12T11:46:52.221Z,2.38
2022-09-12T11:49:34.779Z,1.88
2022-09-12T11:52:08.011Z,2.53
2022-09-12T11:54:40.852Z,1.90
2022-09-12T11:57:15.940Z,3.22
2022-09-12T11:59:49.908Z,2.05
2022-09-12T12:02:26.621Z,1.98
2022-09-12T12:05:16.046Z,1.95
2022-09-12T12:07:54.407Z,1.73
2022-09-12T12:10:32.196Z,1.75
2022-09-12T12:13:03.737Z,1.60
2022-09-12T12:15:32.457Z,2.33
2022-09-12T12:18:06.753Z,1.80
2022-09-12T12:20:36.546Z,1.70
2022-09-12T12:23:04.767Z,1.42
2022-09-12T12:25:41.799Z,1.90
2022-09-12T12:28:09.611Z,1.75
2022-09-12T12:31:03.209Z,1.67
2022-09-12T12:34:07.617Z,1.50
2022-09-12T12:36:46.335Z,1.63
2022-09-12T12:40:00.911Z,1.55
2022-09-12T12:43:22.232Z,1.63
2022-09-12T12:46:12.351Z,1.50
2022-09-12T12:48:57.222Z,1.80
2022-09-12T12:51:41.331Z,1.38
2022-09-12T12:54:35.525Z,1.35
2022-09-12T12:57:17.668Z,1.48
2022-09-12T12:59:52.746Z,1.40
2022-09-12T13:02:28.372Z,1.45
2022-09-12T13:04:57.016Z,1.50
2022-09-12T13:07:34.699Z,1.55
2022-09-12T13:10:05.970Z,1.48
2022-09-12T13:12:37.226Z,1.67
2022-09-12T13:15:26.535Z,1.70
2022-09-12T13:17:54.677Z,1.38
2022-09-12T13:20:29.478Z,1.52
2022-09-12T13:22:58.699Z,1.08
2022-09-12T13:25:30.924Z,1.70
2022-09-12T13:28:18.397Z,1.70
2022-09-12T13:30:48.569Z,1.45
2022-09-12T13:33:22.304Z,1.50
2022-09-12T13:36:32.029Z,1.65
2022-09-12T13:39:18.749Z,1.52
2022-09-12T13:42:25.719Z,1.17
2022-09-12T13:44:59.058Z,1.20
2022-09-12T13:47:31.914Z,1.30
2022-09-12T13:50:00.314Z,1.30
2022-09-12T13:52:31.536Z,1.60
2022-09-12T13:55:01.400Z,1.40
2022-09-12T13:57:32.217Z,1.05
2022-09-12T14:00:05.815Z,1.40
2022-09-12T14:02:37.356Z,1.50
2022-09-12T14:05:13.580Z,1.23
2022-09-12T14:07:53.308Z,1.27
2022-09-12T14:10:27.032Z,1.40
2022-09-12T14:12:57.260Z,1.65
2022-09-12T14:15:28.991Z,1.50
2022-09-12T14:20:32.387Z,1.88
2022-09-12T14:23:03.452Z,1.43
2022-09-12T14:25:37.360Z,1.20
2022-09-12T14:28:06.141Z,1.75
2022-09-12T14:30:37.826Z,1.38
2022-09-12T14:33:17.791Z,1.27
2022-09-12T14:35:48.224Z,1.50
2022-09-12T14:38:25.067Z,1.10
2022-09-12T14:41:00.783Z,1.33
2022-09-12T14:43:30.617Z,1.20
2022-09-12T14:46:03.243Z,1.23
2022-09-12T14:48:33.934Z,1.35
2022-09-12T14:51:02.202Z,1.48
2022-09-12T14:53:34.366Z,1.40
2022-09-12T14:56:08.866Z,1.60
2022-09-12T14:58:37.312Z,1.33
2022-09-12T15:01:24.603Z,1.23
2022-09-12T15:03:54.262Z,1.13
2022-09-12T15:06:25.740Z,1.15
2022-09-12T15:08:55.620Z,1.40
2022-09-12T15:11:24.032Z,6.20
2022-09-12T15:13:51.892Z,1.25
2022-09-12T15:16:21.085Z,1.20
2022-09-12T15:18:48.828Z,1.10
2022-09-12T15:21:20.026Z,1.10
2022-09-12T15:23:49.871Z,1.20
2022-09-12T15:26:19.607Z,1.30
2022-09-12T15:28:47.397Z,1.35
2022-09-12T15:31:25.402Z,1.20
2022-09-12T15:33:53.623Z,1.30
2022-09-12T15:36:23.441Z,1.27
2022-09-12T15:38:51.794Z,1.20
2022-09-12T15:41:21.196Z,1.42
2022-09-12T15:43:49.458Z,1.20
2022-09-12T15:46:19.021Z,1.45
2022-09-12T15:48:48.170Z,1.20
2022-09-12T15:51:17.459Z,1.10
2022-09-12T15:53:46.060Z,0.90
2022-09-12T15:56:16.000Z,1.20
2022-09-12T15:58:57.838Z,1.15
2022-09-12T16:01:26.963Z,34.75
2022-09-12T16:03:56.148Z,14.77
2022-09-12T16:06:24.150Z,11.63
2022-09-12T16:08:51.791Z,5.72
2022-09-12T16:11:22.278Z,2.15
2022-09-12T16:13:50.329Z,1.38
2022-09-12T16:16:18.023Z,1.20
2022-09-12T16:18:45.770Z,1.10
2022-09-12T16:21:15.656Z,1.00
2022-09-12T16:23:43.896Z,1.20
2022-09-12T16:26:11.962Z,1.38
2022-09-12T16:28:39.838Z,1.10
2022-09-12T16:31:09.344Z,1.23
2022-09-12T16:33:39.139Z,1.15
2022-09-12T16:36:09.319Z,1.10
2022-09-12T16:38:43.349Z,1.30
2022-09-12T16:41:12.031Z,1.40
2022-09-12T16:43:40.429Z,1.20
2022-09-12T16:46:09.867Z,1.20
2022-09-12T16:48:37.937Z,1.10
2022-09-12T16:51:07.275Z,1.35
2022-09-12T16:53:36.974Z,1.40
2022-09-12T16:56:06.959Z,1.20
2022-09-12T16:58:39.695Z,1.08
2022-09-12T17:01:11.354Z,1.27
2022-09-12T17:03:39.618Z,1.40
2022-09-12T17:06:09.362Z,1.40
2022-09-12T17:08:39.241Z,1.40
2022-09-12T17:11:10.244Z,1.30
2022-09-12T17:14:02.699Z,1.60
2022-09-12T17:16:27.505Z,1.30
2022-09-12T17:18:55.960Z,1.30
2022-09-12T17:21:24.308Z,1.42
2022-09-12T17:23:51.978Z,1.70
2022-09-12T17:26:21.456Z,1.50
2022-09-12T17:28:49.594Z,1.25
2022-09-12T17:31:17.385Z,1.40
2022-09-12T17:33:45.653Z,1.80
2022-09-12T17:36:15.399Z,1.48
2022-09-12T17:38:45.116Z,1.40
2022-09-12T17:41:15.979Z,1.38
2022-09-12T17:43:46.322Z,1.45
2022-09-12T17:46:14.580Z,1.40
2022-09-12T17:48:42.511Z,1.20
2022-09-12T17:51:11.464Z,1.30
2022-09-12T17:53:39.460Z,1.30
2022-09-12T17:56:08.159Z,1.45
2022-09-12T17:58:36.342Z,1.15
2022-09-12T18:01:24.245Z,0.95
2022-09-12T18:03:55.341Z,1.10
2022-09-12T18:06:23.196Z,1.02
2022-09-12T18:08:51.044Z,1.00
2022-09-12T18:11:18.772Z,1.00
2022-09-12T18:13:46.666Z,1.10
2022-09-12T18:16:17.318Z,1.17
2022-09-12T18:18:45.058Z,1.70
2022-09-12T18:21:13.235Z,1.27
2022-09-12T18:23:41.021Z,1.38
2022-09-12T18:26:10.832Z,1.00
2022-09-12T18:28:40.054Z,1.35
2022-09-12T18:31:14.746Z,1.20
2022-09-12T18:33:43.888Z,1.35
2022-09-12T18:36:13.811Z,1.50
2022-09-12T18:38:43.073Z,1.80
2022-09-12T18:41:13.760Z,1.50
2022-09-12T18:43:41.621Z,1.30
2022-09-12T18:46:12.451Z,1.20
2022-09-12T18:48:40.359Z,1.45
2022-09-12T18:51:12.801Z,1.20
2022-09-12T18:53:40.520Z,1.13
2022-09-12T18:56:10.249Z,1.02
2022-09-12T18:58:38.487Z,1.27
2022-09-12T19:01:11.049Z,1.48
2022-09-12T19:03:38.891Z,1.75
2022-09-12T19:06:13.581Z,1.65
2022-09-12T19:08:41.980Z,1.42
2022-09-12T19:11:11.067Z,1.17
2022-09-12T19:13:39.959Z,1.55
2022-09-12T19:16:10.229Z,1.50
2022-09-12T19:18:38.489Z,1.20
2022-09-12T19:21:07.685Z,1.40
2022-09-12T19:23:37.511Z,1.42
2022-09-12T19:26:07.443Z,1.10
2022-09-12T19:28:35.775Z,1.10
2022-09-12T19:31:05.647Z,1.20
2022-09-12T19:33:33.512Z,1.30
2022-09-12T19:36:02.671Z,1.52
2022-09-12T19:38:30.502Z,1.58
2022-09-12T19:41:00.486Z,1.38
2022-09-12T19:43:28.879Z,1.10
2022-09-12T19:45:56.850Z,1.30
2022-09-12T19:48:24.995Z,1.30
2022-09-12T19:50:52.851Z,1.58
2022-09-12T19:53:20.746Z,1.83
2022-09-12T19:55:48.462Z,1.42
2022-09-12T19:58:17.578Z,1.70
2022-09-12T20:00:45.644Z,1.83
2022-09-12T20:03:13.541Z,1.48
2022-09-12T20:05:42.897Z,1.20
2022-09-12T20:08:10.823Z,1.50
2022-09-12T20:10:38.518Z,1.40
2022-09-12T20:13:07.153Z,1.58
2022-09-12T20:15:36.246Z,1.65
2022-09-12T20:18:04.199Z,1.80
2022-09-12T20:20:32.627Z,1.42
2022-09-12T20:23:00.331Z,2.25
2022-09-12T20:25:28.084Z,1.75
2022-09-12T20:27:59.933Z,1.40
2022-09-12T20:32:57.243Z,2.13
2022-09-12T20:35:25.817Z,1.95
2022-09-12T20:37:53.552Z,1.95
2022-09-12T20:40:21.341Z,1.92
2022-09-12T20:42:49.256Z,1.58
2022-09-12T20:45:16.979Z,2.08
2022-09-12T20:47:44.716Z,1.50
2022-09-12T20:50:14.460Z,1.77
2022-09-12T20:52:42.171Z,1.70
2022-09-12T20:55:10.955Z,1.90
2022-09-12T20:57:38.724Z,1.60
2022-09-12T21:00:09.005Z,1.50
2022-09-12T21:02:36.772Z,1.70
2022-09-12T21:05:04.801Z,1.70
2022-09-12T21:07:33.846Z,1.83
2022-09-12T21:10:01.567Z,2.17
2022-09-12T21:12:29.659Z,1.42
2022-09-12T21:14:57.356Z,1.90
2022-09-12T21:17:25.196Z,1.50
2022-09-12T21:19:52.888Z,1.58
2022-09-12T21:22:20.549Z,1.92
2022-09-12T21:24:49.605Z,1.45
2022-09-12T21:27:19.096Z,1.75
2022-09-12T21:29:46.806Z,1.90
2022-09-12T21:32:14.517Z,2.17
2022-09-12T21:34:42.228Z,1.85
2022-09-12T21:37:09.945Z,2.17
2022-09-12T21:39:37.690Z,1.70
2022-09-12T21:42:07.067Z,1.70
2022-09-12T21:44:34.788Z,1.90
2022-09-12T21:47:02.671Z,1.80
2022-09-12T21:49:30.379Z,1.63
2022-09-12T21:51:58.084Z,1.70
2022-09-12T21:54:25.820Z,1.73
2022-09-12T21:56:53.844Z,1.80
2022-09-12T21:59:23.119Z,2.63
2022-09-12T22:01:50.898Z,2.63
2022-09-12T22:04:18.603Z,1.90
2022-09-12T22:06:46.375Z,2.00
2022-09-12T22:09:14.227Z,1.80
2022-09-12T22:11:41.942Z,1.95
2022-09-12T22:14:09.599Z,1.80
2022-09-12T22:16:38.647Z,1.92
2022-09-12T22:19:06.310Z,1.92
2022-09-12T22:21:34.016Z,1.85
2022-09-12T22:24:19.115Z,1.55
2022-09-12T22:26:47.190Z,1.70
2022-09-12T22:29:14.900Z,2.10
2022-09-12T22:31:44.063Z,2.08
2022-09-12T22:34:11.807Z,1.67
2022-09-12T22:36:39.733Z,1.90
2022-09-12T22:39:07.773Z,1.63
2022-09-12T22:41:35.509Z,1.58
2022-09-12T22:44:03.353Z,1.33
2022-09-12T22:46:31.190Z,1.83
2022-09-12T22:49:00.327Z,2.10
2022-09-12T22:51:28.615Z,1.80
2022-09-12T22:53:56.419Z,2.00
2022-09-12T22:56:24.836Z,2.00
2022-09-12T22:58:54.015Z,1.95
2022-09-12T23:01:22.039Z,2.08
2022-09-12T23:03:49.850Z,1.90
2022-09-12T23:06:18.994Z,1.50
2022-09-12T23:08:46.703Z,1.70
2022-09-12T23:11:16.670Z,1.85
2022-09-12T23:13:46.119Z,1.85
2022-09-12T23:16:17.108Z,2.38
2022-09-12T23:18:45.307Z,1.70
2022-09-12T23:21:14.651Z,1.85
2022-09-12T23:23:44.087Z,2.08
2022-09-12T23:26:14.517Z,1.98
2022-09-12T23:28:47.841Z,1.92
2022-09-12T23:31:17.147Z,1.83
2022-09-12T23:33:45.251Z,2.00
2022-09-12T23:36:14.201Z,2.10
2022-09-12T23:38:45.477Z,1.70
2022-09-12T23:41:15.665Z,2.13
2022-09-12T23:43:45.286Z,1.92
2022-09-12T23:46:13.951Z,1.90
2022-09-12T23:48:42.084Z,1.90
2022-09-12T23:51:10.188Z,1.90
2022-09-12T23:53:37.963Z,1.90
2022-09-12T23:56:07.809Z,2.35
2022-09-12T23:58:35.492Z,2.30
